Time;durP1;ratioP1;P1;durP2;ratioP2;P2;SDS_P1;SDS_P2;PMS_P1;PMS_P2;Temp;Humidity;BMP_temperature;BMP_pressure;BME280_temperature;BME280_humidity;BME280_pressure;Samples;Min_cycle;Max_cycle;Signal;HPM_P1;HPM_P2
2021/11/08 00:00:07;;;;;;;13.00;11.27;;;8.00;99.90;;;;;;5055567;28;20237;-76
2021/11/08 00:02:37;;;;;;;16.15;11.90;;;8.00;99.90;;;;;;5055575;28;20211;-76
2021/11/08 00:05:04;;;;;;;14.45;10.65;;;7.90;99.90;;;;;;5055065;28;20242;-76
2021/11/08 00:07:31;;;;;;;13.88;11.07;;;7.90;99.90;;;;;;5055544;28;20222;-76
2021/11/08 00:09:58;;;;;;;14.18;11.25;;;7.90;99.90;;;;;;5055266;28;20229;-76
2021/11/08 00:12:25;;;;;;;12.45;11.10;;;7.90;99.90;;;;;;5056086;28;20202;-76
2021/11/08 00:14:55;;;;;;;16.05;12.52;;;7.90;99.90;;;;;;5055468;28;20603;-75
2021/11/08 00:17:34;;;;;;;15.93;11.73;;;8.00;99.90;;;;;;5055930;28;20221;-75
2021/11/08 00:20:09;;;;;;;16.02;11.70;;;7.90;99.90;;;;;;5058193;28;20667;-75
2021/11/08 00:22:39;;;;;;;15.48;11.30;;;7.90;99.90;;;;;;5055567;28;20212;-75
2021/11/08 00:25:07;;;;;;;14.88;10.90;;;7.80;99.90;;;;;;5054294;28;20311;-75
2021/11/08 00:27:35;;;;;;;14.48;12.18;;;7.80;99.90;;;;;;5060907;28;20209;-75
2021/11/08 00:30:03;;;;;;;16.40;12.10;;;7.70;99.90;;;;;;5063812;28;20298;-77
2021/11/08 00:32:30;;;;;;;19.48;11.43;;;7.70;99.90;;;;;;5056712;28;20266;-76
2021/11/08 00:34:57;;;;;;;16.08;12.25;;;7.50;99.90;;;;;;5055832;28;20232;-76
2021/11/08 00:37:25;;;;;;;17.42;12.48;;;7.50;99.90;;;;;;5056761;28;20209;-76
2021/11/08 00:39:52;;;;;;;16.02;12.05;;;7.50;99.90;;;;;;5057056;28;20203;-76
2021/11/08 00:42:19;;;;;;;14.95;11.02;;;7.50;99.90;;;;;;5055720;28;20677;-75
2021/11/08 00:44:46;;;;;;;15.90;11.85;;;7.40;99.90;;;;;;5054910;28;20656;-75
2021/11/08 00:47:13;;;;;;;16.27;12.75;;;7.40;99.90;;;;;;5054309;28;20570;-75
2021/11/08 00:49:40;;;;;;;16.58;12.40;;;7.40;99.90;;;;;;5053822;28;20235;-75
2021/11/08 00:52:09;;;;;;;16.85;11.52;;;7.50;99.90;;;;;;5054583;28;20697;-76
2021/11/08 00:54:38;;;;;;;16.50;12.80;;;7.50;99.90;;;;;;5054260;28;20335;-76
2021/11/08 00:57:08;;;;;;;19.20;12.93;;;7.50;99.90;;;;;;5054534;28;20631;-74
2021/11/08 00:59:36;;;;;;;18.25;12.68;;;7.50;99.90;;;;;;5053735;28;20205;-75
2021/11/08 01:02:04;;;;;;;16.02;12.45;;;7.50;99.90;;;;;;5054387;28;20267;-75
2021/11/08 01:04:30;;;;;;;16.73;12.55;;;7.50;99.90;;;;;;5054052;28;20659;-75
2021/11/08 01:07:00;;;;;;;17.27;11.95;;;7.60;99.90;;;;;;5054431;28;20630;-75
2021/11/08 01:09:28;;;;;;;15.73;13.18;;;7.60;99.90;;;;;;5054090;28;20209;-76
2021/11/08 01:11:56;;;;;;;19.85;12.55;;;7.60;99.90;;;;;;5053983;28;20213;-76
2021/11/08 01:14:24;;;;;;;16.35;12.65;;;7.70;99.90;;;;;;5053762;28;20233;-75
2021/11/08 01:16:56;;;;;;;14.52;11.55;;;7.60;99.90;;;;;;5053405;28;20776;-75
2021/11/08 01:19:24;;;;;;;16.55;11.45;;;7.60;99.90;;;;;;5053684;28;20243;-75
2021/11/08 01:21:52;;;;;;;16.15;12.25;;;7.60;99.90;;;;;;5053542;28;20600;-75
2021/11/08 01:24:20;;;;;;;24.13;12.82;;;7.60;99.90;;;;;;5053687;28;20246;-75
2021/11/08 01:26:48;;;;;;;15.70;12.45;;;7.60;99.90;;;;;;5053327;28;20263;-75
2021/11/08 01:29:17;;;;;;;15.35;11.45;;;7.50;99.90;;;;;;5053666;28;20312;-75
2021/11/08 01:31:44;;;;;;;16.75;11.20;;;7.50;99.90;;;;;;5053765;28;20233;-75
2021/11/08 01:34:10;;;;;;;23.23;12.90;;;7.50;99.90;;;;;;5053611;28;20327;-75
2021/11/08 01:36:39;;;;;;;16.10;12.02;;;7.50;99.90;;;;;;5053237;28;20303;-76
2021/11/08 01:39:14;;;;;;;14.38;12.10;;;7.50;99.90;;;;;;5062126;28;20220;-75
2021/11/08 01:41:43;;;;;;;14.80;11.43;;;7.40;99.90;;;;;;5067098;28;20244;-75
2021/11/08 01:44:10;;;;;;;17.90;11.32;;;7.30;99.90;;;;;;5067894;28;20230;-76
2021/11/08 01:46:38;;;;;;;17.33;11.50;;;7.30;99.90;;;;;;5068911;28;20695;-76
2021/11/08 01:49:05;;;;;;;15.07;11.40;;;7.30;99.90;;;;;;5074919;28;20276;-76
2021/11/08 01:51:35;;;;;;;12.35;9.82;;;7.30;99.90;;;;;;5076071;28;20246;-76
2021/11/08 01:54:03;;;;;;;17.08;10.25;;;7.20;99.90;;;;;;5077024;28;20238;-75
2021/11/08 01:56:30;;;;;;;18.90;11.88;;;7.20;99.90;;;;;;5077140;28;20204;-76
2021/11/08 01:58:57;;;;;;;14.48;10.60;;;7.10;99.90;;;;;;5077026;28;20244;-75
2021/11/08 02:01:24;;;;;;;18.05;11.55;;;7.10;99.90;;;;;;5066984;28;20707;-76
2021/11/08 02:03:53;;;;;;;14.15;10.30;;;7.00;99.90;;;;;;5055301;28;20244;-75
2021/11/08 02:06:20;;;;;;;16.02;10.98;;;7.00;99.90;;;;;;5075105;28;20218;-75
2021/11/08 02:08:47;;;;;;;19.75;11.90;;;6.90;99.90;;;;;;5076716;28;20215;-75
2021/11/08 02:11:14;;;;;;;16.00;10.60;;;6.90;99.90;;;;;;5077158;28;20274;-75
2021/11/08 02:13:42;;;;;;;18.23;11.20;;;6.80;99.90;;;;;;5076851;28;20232;-75
2021/11/08 02:16:09;;;;;;;14.88;11.00;;;6.80;99.90;;;;;;5076549;28;20193;-76
2021/11/08 02:18:37;;;;;;;15.85;11.00;;;6.70;99.90;;;;;;5064955;28;20219;-76
2021/11/08 02:21:08;;;;;;;16.55;10.13;;;6.70;99.90;;;;;;5052998;28;20200;-76
2021/11/08 02:23:36;;;;;;;14.80;11.02;;;6.60;99.90;;;;;;5052875;28;20228;-76
2021/11/08 02:26:06;;;;;;;20.00;12.32;;;6.70;99.90;;;;;;5053137;28;20216;-76
2021/11/08 02:28:33;;;;;;;17.63;12.73;;;6.60;99.90;;;;;;5052666;28;20203;-76
2021/11/08 02:31:00;;;;;;;18.10;11.32;;;6.60;99.90;;;;;;5052312;28;20225;-76
2021/11/08 02:33:28;;;;;;;22.73;12.25;;;6.60;99.90;;;;;;5052562;28;20338;-75
2021/11/08 02:35:56;;;;;;;15.70;11.55;;;6.60;99.90;;;;;;5052401;28;20243;-75
2021/11/08 02:38:25;;;;;;;15.75;12.02;;;6.60;99.90;;;;;;5055742;28;20209;-75
2021/11/08 02:40:54;;;;;;;19.02;12.55;;;6.60;99.90;;;;;;5075582;28;20212;-76
2021/11/08 02:43:22;;;;;;;13.65;10.55;;;6.50;99.90;;;;;;5075854;28;20213;-75
2021/11/08 02:45:53;;;;;;;17.88;11.50;;;6.50;99.90;;;;;;5076268;28;20196;-76
2021/11/08 02:48:20;;;;;;;19.88;12.05;;;6.50;99.90;;;;;;5075912;28;20216;-76
2021/11/08 02:50:54;;;;;;;18.13;12.38;;;6.50;99.90;;;;;;5072660;28;20262;-76
2021/11/08 02:53:23;;;;;;;18.55;11.55;;;6.50;99.90;;;;;;5057160;28;20228;-76
2021/11/08 02:55:52;;;;;;;20.67;11.65;;;6.60;99.90;;;;;;5052279;28;20294;-75
2021/11/08 02:58:19;;;;;;;21.90;13.27;;;6.60;99.90;;;;;;5052338;28;20208;-75
2021/11/08 03:00:47;;;;;;;21.55;11.43;;;6.60;99.90;;;;;;5051746;28;20207;-75
2021/11/08 03:03:14;;;;;;;17.88;12.10;;;6.60;99.90;;;;;;5051832;28;20305;-75
2021/11/08 03:05:41;;;;;;;20.08;12.63;;;6.70;99.90;;;;;;5051965;28;20231;-75
2021/11/08 03:08:09;;;;;;;17.48;11.13;;;6.70;99.90;;;;;;5052029;28;20210;-75
2021/11/08 03:10:38;;;;;;;22.27;11.68;;;6.70;99.90;;;;;;5051403;28;20239;-76
2021/11/08 03:13:13;;;;;;;17.73;12.20;;;6.70;99.90;;;;;;5051783;28;20210;-76
2021/11/08 03:15:54;;;;;;;16.27;11.50;;;6.70;99.90;;;;;;5051984;28;20204;-76
2021/11/08 03:18:32;;;;;;;19.13;12.45;;;6.70;99.90;;;;;;5051775;28;20230;-76
2021/11/08 03:20:59;;;;;;;22.80;12.52;;;6.70;99.90;;;;;;5051504;28;20213;-76
2021/11/08 03:23:29;;;;;;;16.45;11.32;;;6.60;99.90;;;;;;5052047;28;20246;-76
2021/11/08 03:26:06;;;;;;;16.63;11.98;;;6.60;99.90;;;;;;5052246;28;20207;-76
2021/11/08 03:28:36;;;;;;;13.38;10.63;;;6.60;99.90;;;;;;5052212;28;20552;-76
2021/11/08 03:31:05;;;;;;;16.98;11.02;;;6.60;99.90;;;;;;5051884;28;20230;-76
2021/11/08 03:33:32;;;;;;;16.00;11.80;;;6.50;99.90;;;;;;5051885;28;20238;-76
2021/11/08 03:36:00;;;;;;;19.48;11.55;;;6.50;99.90;;;;;;5052200;28;20333;-76
2021/11/08 03:38:28;;;;;;;16.90;11.85;;;6.60;99.90;;;;;;5051701;28;20620;-75
2021/11/08 03:40:55;;;;;;;18.27;10.93;;;6.60;99.90;;;;;;5051622;28;20636;-75
2021/11/08 03:43:22;;;;;;;18.10;10.98;;;6.60;99.90;;;;;;5051567;28;20539;-75
2021/11/08 03:45:51;;;;;;;22.88;12.90;;;6.50;99.90;;;;;;5051589;28;20203;-75
2021/11/08 03:48:19;;;;;;;23.65;12.57;;;6.40;99.90;;;;;;5051631;28;20689;-75
2021/11/08 03:50:48;;;;;;;16.85;11.05;;;6.40;99.90;;;;;;5052042;28;20233;-76
2021/11/08 03:53:15;;;;;;;21.20;11.55;;;6.30;99.90;;;;;;5051665;28;20205;-76
2021/11/08 03:55:43;;;;;;;20.27;11.80;;;6.30;99.90;;;;;;5051790;28;20245;-76
2021/11/08 03:58:10;;;;;;;17.98;11.48;;;6.20;99.90;;;;;;5052184;28;20298;-75
2021/11/08 04:00:40;;;;;;;18.85;11.50;;;6.10;99.90;;;;;;5052916;28;20199;-75
2021/11/08 04:03:10;;;;;;;20.50;11.77;;;6.00;99.90;;;;;;5055445;28;20207;-75
2021/11/08 04:05:39;;;;;;;17.55;11.35;;;6.00;99.90;;;;;;5055443;28;20207;-75
2021/11/08 04:08:09;;;;;;;15.20;10.27;;;6.10;99.90;;;;;;5055305;28;20211;-75
2021/11/08 04:10:36;;;;;;;23.15;12.70;;;6.00;99.90;;;;;;5054898;28;20228;-76
2021/11/08 04:13:04;;;;;;;20.75;11.15;;;5.90;99.90;;;;;;5055167;28;20230;-75
2021/11/08 04:15:36;;;;;;;16.83;9.80;;;5.80;99.90;;;;;;5055267;28;20301;-75
2021/11/08 04:18:05;;;;;;;20.38;11.40;;;5.80;99.90;;;;;;5054889;28;20573;-76
2021/11/08 04:20:34;;;;;;;16.15;10.40;;;5.80;99.90;;;;;;5054658;28;20207;-75
2021/11/08 04:23:01;;;;;;;20.23;11.63;;;5.80;99.90;;;;;;5054870;28;20212;-76
2021/11/08 04:25:28;;;;;;;17.88;11.13;;;5.80;99.90;;;;;;5057148;28;20216;-77
2021/11/08 04:27:56;;;;;;;19.40;11.18;;;5.80;99.90;;;;;;5061561;28;20208;-76
2021/11/08 04:30:25;;;;;;;19.85;10.75;;;5.70;99.90;;;;;;5071310;28;20215;-76
2021/11/08 04:33:04;;;;;;;15.85;11.18;;;5.70;99.90;;;;;;5063345;28;20234;-75
2021/11/08 04:35:41;;;;;;;16.95;9.80;;;5.80;99.90;;;;;;5056315;28;20211;-76
2021/11/08 04:38:17;;;;;;;16.02;10.35;;;5.70;99.90;;;;;;5054695;28;20207;-76
2021/11/08 04:40:48;;;;;;;20.52;10.73;;;5.70;99.90;;;;;;5054624;28;20201;-76
2021/11/08 04:43:27;;;;;;;18.63;11.20;;;5.70;99.90;;;;;;5054897;28;20190;-76
2021/11/08 04:48:57;;;;;;;21.10;11.98;;;5.60;99.90;;;;;;5013622;28;20198;-75
2021/11/08 04:51:34;;;;;;;22.20;11.63;;;5.60;99.90;;;;;;5054553;28;20233;-75
2021/11/08 04:54:10;;;;;;;19.63;11.32;;;5.70;99.90;;;;;;5053899;28;20222;-75
2021/11/08 05:24:37;;;;;;;16.58;11.02;;;5.40;99.90;;;;;;4988190;28;20722;-74
2021/11/08 05:29:59;;;;;;;22.05;10.90;;;5.50;99.90;;;;;;5024129;28;20232;-75
2021/11/08 05:32:28;;;;;;;20.75;11.10;;;5.40;99.90;;;;;;5057055;28;20233;-75
2021/11/08 05:34:56;;;;;;;22.40;11.00;;;5.40;99.90;;;;;;5055838;28;20231;-75
2021/11/08 05:37:23;;;;;;;17.73;11.00;;;5.40;99.90;;;;;;5058693;28;20222;-76
2021/11/08 05:39:52;;;;;;;17.73;9.88;;;5.40;99.90;;;;;;5063638;28;20210;-75
2021/11/08 05:42:21;;;;;;;19.02;10.40;;;5.30;99.90;;;;;;5055441;28;20605;-75
2021/11/08 05:44:48;;;;;;;19.45;11.00;;;5.30;99.90;;;;;;5056172;28;20229;-76
2021/11/08 05:47:15;;;;;;;22.73;10.32;;;5.30;99.90;;;;;;5055817;28;20230;-76
2021/11/08 05:49:43;;;;;;;19.77;10.32;;;5.20;99.90;;;;;;5053604;28;20216;-76
2021/11/08 05:52:09;;;;;;;15.77;11.88;;;5.20;99.90;;;;;;5053760;28;20264;-76
2021/11/08 05:54:38;;;;;;;14.52;9.95;;;5.10;99.90;;;;;;5053527;28;20227;-76
2021/11/08 05:57:28;;;;;;;19.70;10.50;;;5.10;99.90;;;;;;5054109;28;20663;-75
2021/11/08 06:50:38;;;;;;;15.25;9.75;;;5.10;99.90;;;;;;5052043;28;20201;-75
2021/11/08 06:53:06;;;;;;;14.60;10.35;;;5.20;99.90;;;;;;5052044;28;20281;-74
2021/11/08 06:55:34;;;;;;;20.75;11.93;;;5.20;99.90;;;;;;5052642;28;20670;-75
2021/11/08 06:58:04;;;;;;;21.33;12.18;;;5.30;99.90;;;;;;5053161;28;20210;-76
2021/11/08 07:00:49;;;;;;;21.88;12.35;;;5.40;99.90;;;;;;5052652;28;20552;-75
2021/11/08 07:03:16;;;;;;;25.67;12.77;;;5.50;99.90;;;;;;5053287;28;20216;-75
2021/11/08 07:05:44;;;;;;;24.88;12.90;;;5.60;99.90;;;;;;5053282;28;20210;-75
2021/11/08 07:08:11;;;;;;;24.85;13.93;;;5.60;99.90;;;;;;5053354;28;20221;-75
2021/11/08 07:10:38;;;;;;;21.50;13.63;;;5.70;99.90;;;;;;5053800;28;20694;-75
2021/11/08 07:13:06;;;;;;;31.80;15.45;;;5.70;99.90;;;;;;5053769;28;20712;-74
2021/11/08 07:15:33;;;;;;;30.67;15.90;;;5.70;99.90;;;;;;5056552;28;20720;-75
2021/11/08 07:18:00;;;;;;;36.60;15.55;;;5.80;99.90;;;;;;5056754;28;20377;-75
2021/11/08 07:20:28;;;;;;;30.08;14.80;;;5.90;99.90;;;;;;5056706;28;20213;-75
2021/11/08 07:22:56;;;;;;;34.42;14.52;;;5.90;99.90;;;;;;5056630;28;20593;-74
2021/11/08 07:25:24;;;;;;;36.65;15.48;;;6.00;99.90;;;;;;5055893;28;20311;-75
2021/11/08 07:27:50;;;;;;;36.33;15.27;;;6.10;99.90;;;;;;5054562;28;20623;-75
2021/11/08 07:30:20;;;;;;;30.02;15.32;;;6.20;99.90;;;;;;5052265;28;20289;-75
2021/11/08 07:32:47;;;;;;;37.47;16.02;;;6.20;99.90;;;;;;5052571;28;20228;-74
2021/11/08 07:35:14;;;;;;;27.23;15.90;;;6.30;99.90;;;;;;5054163;28;20325;-74
2021/11/08 07:37:41;;;;;;;31.25;16.02;;;6.30;99.90;;;;;;5056158;28;20290;-75
2021/11/08 07:40:11;;;;;;;38.03;16.15;;;6.40;99.90;;;;;;5055786;28;20258;-75
2021/11/08 07:42:37;;;;;;;30.08;15.80;;;6.50;99.90;;;;;;5055926;28;20227;-75
2021/11/08 07:45:05;;;;;;;30.02;15.80;;;6.50;99.90;;;;;;5057545;28;20592;-75
2021/11/08 07:47:32;;;;;;;31.40;14.32;;;6.60;99.90;;;;;;5056865;28;20231;-75
2021/11/08 07:49:59;;;;;;;34.67;14.52;;;6.50;99.90;;;;;;5056700;28;20212;-75
2021/11/08 07:52:26;;;;;;;22.70;14.40;;;6.50;99.90;;;;;;5045239;28;20216;-76
2021/11/08 07:54:53;;;;;;;26.83;15.25;;;6.40;99.90;;;;;;5046235;28;20244;-76
2021/11/08 07:57:22;;;;;;;22.05;12.43;;;6.40;99.90;;;;;;5048659;28;20277;-74
2021/11/08 07:59:49;;;;;;;24.67;14.30;;;6.30;99.90;;;;;;5029733;28;20271;-74
2021/11/08 08:02:16;;;;;;;28.88;14.27;;;6.40;99.90;;;;;;5046263;28;20205;-72
2021/11/08 08:04:42;;;;;;;25.73;14.38;;;6.40;99.90;;;;;;5030164;28;20268;-74
2021/11/08 08:07:09;;;;;;;24.38;12.90;;;6.40;99.90;;;;;;5035502;28;20210;-74
2021/11/08 08:09:37;;;;;;;23.58;13.65;;;6.30;99.90;;;;;;5037239;28;20211;-74
2021/11/08 08:12:04;;;;;;;21.13;12.60;;;6.40;99.90;;;;;;5039135;28;20224;-74
2021/11/08 08:14:33;;;;;;;24.38;14.15;;;6.30;99.90;;;;;;5041323;28;20234;-75
2021/11/08 08:17:01;;;;;;;24.50;12.45;;;6.30;99.90;;;;;;5036154;28;20242;-74
2021/11/08 08:19:31;;;;;;;20.70;12.77;;;6.40;99.90;;;;;;5035319;28;20240;-74
2021/11/08 08:22:08;;;;;;;25.67;13.38;;;6.40;99.90;;;;;;5036278;28;20210;-77
2021/11/08 08:24:35;;;;;;;19.38;12.98;;;6.50;99.90;;;;;;5036828;28;20233;-73
2021/11/08 08:27:04;;;;;;;23.40;12.82;;;6.50;99.90;;;;;;5035744;28;20564;-74
2021/11/08 08:29:32;;;;;;;19.77;13.05;;;6.70;99.90;;;;;;5032326;28;20202;-74
2021/11/08 08:31:59;;;;;;;21.73;12.40;;;6.80;99.90;;;;;;5033217;28;20441;-73
2021/11/08 08:34:29;;;;;;;24.02;13.07;;;6.80;99.90;;;;;;5032436;28;20230;-74
2021/11/08 08:36:57;;;;;;;19.42;12.02;;;6.90;99.90;;;;;;5034740;28;20199;-74
2021/11/08 08:39:24;;;;;;;27.73;13.43;;;7.00;99.90;;;;;;5041773;28;20207;-75
2021/11/08 08:41:52;;;;;;;19.17;11.93;;;7.00;99.90;;;;;;5035694;28;20206;-74
2021/11/08 08:44:20;;;;;;;23.30;12.25;;;7.00;99.90;;;;;;5036899;28;20315;-76
2021/11/08 08:47:06;;;;;;;18.40;10.60;;;7.00;99.90;;;;;;5036271;28;20220;-75
2021/11/08 08:49:34;;;;;;;22.17;11.52;;;7.10;99.90;;;;;;5036254;28;20295;-75
2021/11/08 08:52:01;;;;;;;22.17;11.68;;;7.10;99.90;;;;;;5036230;28;20565;-75
2021/11/08 08:54:28;;;;;;;15.85;10.18;;;7.20;99.90;;;;;;5041840;28;20226;-75
2021/11/08 08:56:55;;;;;;;23.83;11.80;;;7.30;99.90;;;;;;5055709;28;20207;-74
2021/11/08 08:59:22;;;;;;;20.90;11.80;;;7.30;99.90;;;;;;5055114;28;20206;-72
2021/11/08 09:01:53;;;;;;;16.73;11.02;;;7.30;99.90;;;;;;5052044;28;20265;-75
2021/11/08 09:04:20;;;;;;;23.23;11.38;;;7.30;99.90;;;;;;5046135;28;20712;-78
2021/11/08 09:06:47;;;;;;;21.65;10.57;;;7.40;99.90;;;;;;5046101;28;20291;-78
2021/11/08 09:09:13;;;;;;;18.88;11.77;;;7.40;99.90;;;;;;5048219;28;20682;-76
2021/11/08 09:11:40;;;;;;;23.92;11.15;;;7.50;99.90;;;;;;5055905;28;20217;-75
2021/11/08 09:14:07;;;;;;;18.83;10.52;;;7.60;99.90;;;;;;5055409;28;20222;-73
2021/11/08 09:16:35;;;;;;;22.75;10.57;;;7.60;99.90;;;;;;5054192;28;20386;-75
2021/11/08 09:19:04;;;;;;;17.77;10.10;;;7.70;99.90;;;;;;5052236;28;20300;-74
2021/11/08 09:21:32;;;;;;;19.88;10.60;;;7.80;99.90;;;;;;5036303;28;20578;-76
2021/11/08 09:24:01;;;;;;;16.55;9.50;;;7.90;99.90;;;;;;5033945;28;20300;-74
2021/11/08 09:26:30;;;;;;;28.15;15.95;;;7.90;99.90;;;;;;5033751;28;20218;-74
2021/11/08 09:28:58;;;;;;;17.80;9.60;;;8.10;99.90;;;;;;5034643;28;20237;-74
2021/11/08 09:31:26;;;;;;;16.35;9.27;;;8.30;99.90;;;;;;5038482;28;20528;-76
2021/11/08 09:33:57;;;;;;;14.65;9.05;;;8.30;99.90;;;;;;5039265;28;20274;-75
2021/11/08 09:36:25;;;;;;;15.93;9.40;;;8.50;99.90;;;;;;5039763;28;20652;-77
2021/11/08 09:38:55;;;;;;;16.23;9.00;;;8.40;96.70;;;;;;5037685;28;20530;-76
2021/11/08 09:41:25;;;;;;;17.05;9.95;;;8.40;96.10;;;;;;5036898;28;20238;-75
2021/11/08 09:43:54;;;;;;;14.02;9.55;;;8.50;94.40;;;;;;5034193;28;20219;-75
2021/11/08 09:46:22;;;;;;;15.00;8.95;;;8.70;94.60;;;;;;5033814;28;20227;-75
2021/11/08 09:48:51;;;;;;;16.80;9.55;;;8.90;93.50;;;;;;5044232;28;20264;-80
2021/11/08 09:51:19;;;;;;;15.50;8.38;;;9.00;92.60;;;;;;5017134;28;20298;-77
2021/11/08 09:53:47;;;;;;;10.85;8.02;;;9.10;90.00;;;;;;5016062;28;20228;-77
2021/11/08 09:56:15;;;;;;;14.68;8.73;;;9.20;88.30;;;;;;5017548;28;20208;-77
2021/11/08 09:58:42;;;;;;;15.45;8.15;;;9.30;86.20;;;;;;5015617;28;20235;-74
2021/11/08 10:01:14;;;;;;;11.45;7.32;;;9.40;84.20;;;;;;5012926;28;20246;-76
2021/11/08 10:03:44;;;;;;;20.65;8.95;;;9.60;82.20;;;;;;5012970;28;20242;-76
2021/11/08 10:06:12;;;;;;;18.08;8.05;;;9.80;80.10;;;;;;5012931;28;20211;-77
2021/11/08 10:08:41;;;;;;;12.02;7.65;;;10.00;76.30;;;;;;5014927;28;20302;-77
2021/11/08 10:11:12;;;;;;;12.73;8.00;;;10.20;74.50;;;;;;5021758;28;20226;-79
2021/11/08 10:13:41;;;;;;;13.90;8.88;;;10.40;72.50;;;;;;5016586;28;20418;-76
2021/11/08 10:16:10;;;;;;;13.75;8.85;;;10.60;70.70;;;;;;5014665;28;20275;-76
2021/11/08 10:18:39;;;;;;;12.15;7.78;;;10.80;68.30;;;;;;5013658;28;20235;-76
2021/11/08 10:21:09;;;;;;;10.40;6.63;;;10.90;68.40;;;;;;5030715;28;20621;-76
2021/11/08 10:23:38;;;;;;;14.73;6.80;;;11.00;66.60;;;;;;5032693;28;20219;-77
2021/11/08 10:26:11;;;;;;;13.48;7.00;;;11.20;66.10;;;;;;5032739;28;20207;-76
2021/11/08 10:28:38;;;;;;;17.35;7.03;;;11.20;65.40;;;;;;5032819;28;20571;-76
2021/11/08 10:31:09;;;;;;;12.70;7.15;;;11.40;64.80;;;;;;5032309;28;20587;-76
2021/11/08 10:33:38;;;;;;;11.80;7.10;;;11.40;63.10;;;;;;5033668;28;20257;-77
2021/11/08 10:36:11;;;;;;;15.38;6.90;;;11.40;62.50;;;;;;5033376;28;20304;-76
2021/11/08 10:38:41;;;;;;;15.43;6.78;;;11.50;64.30;;;;;;5034003;28;20345;-76
2021/11/08 10:41:12;;;;;;;14.43;7.22;;;11.70;62.30;;;;;;5035341;28;20203;-76
2021/11/08 10:43:41;;;;;;;13.80;6.30;;;11.90;62.10;;;;;;5038642;28;20222;-77
2021/11/08 10:46:11;;;;;;;15.90;7.07;;;12.10;60.60;;;;;;5038619;28;20207;-76
2021/11/08 10:48:42;;;;;;;12.35;6.60;;;11.80;60.30;;;;;;5033424;28;20207;-77
2021/11/08 10:51:14;;;;;;;10.02;6.30;;;11.30;61.50;;;;;;5039668;28;20265;-76
2021/11/08 10:53:49;;;;;;;12.02;6.90;;;11.00;62.10;;;;;;5033131;28;20272;-76
2021/11/08 10:56:22;;;;;;;12.55;7.32;;;10.50;63.60;;;;;;5032399;28;20681;-77
2021/11/08 10:58:50;;;;;;;12.93;6.43;;;10.40;63.50;;;;;;5032547;28;20538;-76
2021/11/08 11:01:23;;;;;;;13.88;7.10;;;10.40;65.00;;;;;;5033332;28;20214;-77
2021/11/08 11:03:51;;;;;;;11.00;6.50;;;10.40;64.70;;;;;;5033985;28;20528;-76
2021/11/08 11:06:19;;;;;;;12.07;5.88;;;10.50;64.70;;;;;;5036431;28;20238;-77
2021/11/08 11:08:52;;;;;;;11.30;5.10;;;10.20;62.60;;;;;;5037155;28;20291;-76
2021/11/08 11:11:24;;;;;;;15.45;6.22;;;10.00;61.90;;;;;;5020624;28;20207;-77
2021/11/08 11:13:53;;;;;;;10.90;5.60;;;10.00;63.00;;;;;;5018491;28;20231;-77
2021/11/08 11:16:32;;;;;;;12.10;7.03;;;10.10;64.80;;;;;;5035869;28;20214;-77
2021/11/08 11:19:01;;;;;;;17.63;6.85;;;10.10;65.90;;;;;;5038017;28;20289;-76
2021/11/08 11:21:28;;;;;;;14.10;7.05;;;10.10;65.90;;;;;;5036622;28;20550;-77
2021/11/08 11:24:01;;;;;;;11.05;5.68;;;9.90;64.90;;;;;;5038671;28;20239;-77
2021/11/08 11:26:33;;;;;;;15.85;6.65;;;10.00;64.50;;;;;;5018875;28;20208;-76
2021/11/08 11:29:00;;;;;;;12.63;6.05;;;10.00;64.50;;;;;;5016747;28;20236;-77
2021/11/08 11:31:33;;;;;;;14.35;7.05;;;10.00;64.50;;;;;;5039940;28;20213;-77
2021/11/08 11:34:13;;;;;;;15.95;6.65;;;10.00;65.10;;;;;;5035562;28;20725;-77
2021/11/08 11:36:40;;;;;;;16.05;7.25;;;10.20;65.10;;;;;;5016934;28;20207;-77
2021/11/08 11:39:10;;;;;;;10.95;5.18;;;10.20;65.20;;;;;;5015076;28;20214;-77
2021/11/08 11:41:41;;;;;;;13.50;6.07;;;10.20;64.40;;;;;;5036763;28;20239;-77
2021/11/08 11:44:10;;;;;;;15.30;6.30;;;10.30;63.80;;;;;;5042260;28;20281;-76
2021/11/08 11:46:39;;;;;;;18.02;7.30;;;10.20;63.40;;;;;;5036615;28;20203;-77
2021/11/08 11:49:09;;;;;;;17.42;6.55;;;10.00;64.30;;;;;;5035441;28;20305;-74
2021/11/08 11:51:39;;;;;;;14.82;6.15;;;10.00;64.70;;;;;;5035111;28;20207;-76
2021/11/08 11:54:07;;;;;;;11.65;5.30;;;10.00;64.30;;;;;;5035040;28;20235;-76
2021/11/08 11:56:38;;;;;;;8.90;5.65;;;9.90;65.30;;;;;;5034702;28;20238;-76
2021/11/08 11:59:08;;;;;;;15.38;4.70;;;9.90;65.10;;;;;;5034415;28;20840;-77
2021/11/08 12:01:36;;;;;;;13.30;5.20;;;9.90;65.80;;;;;;5036098;28;20235;-76
2021/11/08 12:04:06;;;;;;;11.05;4.80;;;9.90;65.90;;;;;;5035433;28;20331;-76
2021/11/08 12:06:36;;;;;;;12.48;5.15;;;10.00;64.70;;;;;;5035318;28;20242;-77
2021/11/08 12:09:07;;;;;;;10.82;5.10;;;9.90;64.40;;;;;;5035874;28;20203;-77
2021/11/08 12:11:43;;;;;;;13.15;4.95;;;9.80;63.90;;;;;;5036476;28;20684;-78
2021/11/08 12:14:14;;;;;;;10.07;3.67;;;9.90;64.00;;;;;;5035205;28;20269;-76
2021/11/08 12:16:57;;;;;;;13.55;3.60;;;9.90;63.10;;;;;;5031045;28;20229;-75
2021/11/08 12:19:28;;;;;;;10.15;4.45;;;9.90;62.70;;;;;;5044236;28;20203;-77
2021/11/08 12:21:55;;;;;;;9.02;3.97;;;10.00;60.80;;;;;;5037433;28;20257;-76
2021/11/08 12:24:24;;;;;;;9.20;3.80;;;10.20;60.10;;;;;;5035182;28;20313;-76
2021/11/08 12:27:03;;;;;;;6.70;3.35;;;10.40;59.50;;;;;;5035567;28;20290;-77
2021/11/08 12:29:32;;;;;;;12.50;4.93;;;10.60;59.20;;;;;;5035308;28;20705;-75
2021/11/08 12:32:04;;;;;;;10.88;3.83;;;10.70;59.30;;;;;;5034756;28;20557;-76
2021/11/08 12:34:39;;;;;;;6.97;3.83;;;10.90;58.90;;;;;;5035319;28;20292;-76
2021/11/08 12:37:06;;;;;;;13.38;4.28;;;11.00;57.60;;;;;;5035264;28;20684;-76
2021/11/08 12:39:34;;;;;;;10.98;3.42;;;11.00;56.50;;;;;;5035966;28;20217;-75
2021/11/08 12:42:06;;;;;;;12.55;3.92;;;11.00;56.10;;;;;;5035989;28;20678;-76
2021/11/08 12:44:40;;;;;;;10.10;3.60;;;11.10;55.20;;;;;;5036971;28;20223;-75
2021/11/08 12:47:10;;;;;;;7.00;3.45;;;11.10;55.60;;;;;;5040349;28;20258;-76
2021/11/08 12:49:41;;;;;;;8.88;3.55;;;11.10;55.00;;;;;;5042043;28;20276;-77
2021/11/08 12:52:13;;;;;;;16.95;5.68;;;10.90;54.30;;;;;;5041339;28;20211;-76
2021/11/08 12:54:49;;;;;;;11.10;3.67;;;11.00;54.10;;;;;;5040717;28;20581;-76
2021/11/08 12:57:18;;;;;;;15.07;4.40;;;11.20;53.70;;;;;;5041869;28;20305;-76
2021/11/08 12:59:52;;;;;;;14.63;4.13;;;11.30;53.40;;;;;;5044487;28;20207;-78
2021/11/08 13:02:25;;;;;;;11.13;4.13;;;11.30;54.30;;;;;;5050865;28;20286;-74
2021/11/08 13:04:53;;;;;;;10.15;4.15;;;11.30;53.50;;;;;;5050127;28;20239;-75
2021/11/08 13:07:22;;;;;;;10.90;5.10;;;11.30;55.20;;;;;;5041480;28;20237;-75
2021/11/08 13:09:51;;;;;;;13.88;4.72;;;11.30;56.80;;;;;;5040023;28;20657;-76
2021/11/08 13:12:20;;;;;;;11.55;4.97;;;11.30;58.00;;;;;;5040603;28;20207;-76
2021/11/08 13:14:59;;;;;;;12.90;5.00;;;11.30;58.10;;;;;;5041123;28;20254;-78
2021/11/08 13:17:26;;;;;;;12.05;5.22;;;11.30;58.30;;;;;;5041633;28;20214;-76
2021/11/08 13:20:02;;;;;;;9.70;4.38;;;11.00;58.40;;;;;;5040207;28;20257;-76
2021/11/08 13:22:32;;;;;;;8.43;3.72;;;10.80;59.40;;;;;;5041206;28;20207;-78
2021/11/08 13:25:08;;;;;;;16.13;4.90;;;10.50;59.10;;;;;;5036384;28;20234;-76
2021/11/08 13:27:36;;;;;;;8.10;4.50;;;10.40;59.10;;;;;;5038994;28;20277;-76
2021/11/08 13:30:10;;;;;;;10.35;4.47;;;10.30;59.00;;;;;;5045877;28;20218;-76
2021/11/08 13:32:37;;;;;;;6.85;3.55;;;10.30;59.00;;;;;;5052931;28;20235;-76
2021/11/08 13:35:11;;;;;;;15.20;3.83;;;10.10;58.80;;;;;;5050751;28;20314;-76
2021/11/08 13:37:40;;;;;;;10.13;3.63;;;10.10;58.50;;;;;;5043354;28;20593;-76
2021/11/08 13:40:22;;;;;;;13.43;5.22;;;10.00;58.70;;;;;;5041216;28;20511;-76
2021/11/08 13:42:52;;;;;;;10.55;4.40;;;10.00;58.70;;;;;;5042445;28;20214;-75
2021/11/08 13:45:21;;;;;;;10.98;4.55;;;10.00;58.70;;;;;;5039600;28;20223;-75
2021/11/08 13:47:50;;;;;;;7.10;4.05;;;9.90;59.60;;;;;;5042103;28;20267;-75
2021/11/08 13:50:20;;;;;;;8.68;3.78;;;9.90;59.60;;;;;;5040671;28;20279;-75
2021/11/08 13:52:48;;;;;;;9.63;3.85;;;9.90;58.90;;;;;;5044819;28;20211;-77
2021/11/08 13:55:16;;;;;;;6.90;3.70;;;9.90;58.60;;;;;;5046098;28;20223;-76
2021/11/08 13:57:45;;;;;;;15.05;5.20;;;9.90;59.20;;;;;;5045638;28;20222;-77
2021/11/08 14:00:16;;;;;;;11.95;4.88;;;10.00;58.70;;;;;;5044160;28;20203;-77
2021/11/08 14:02:45;;;;;;;9.57;3.30;;;10.00;58.10;;;;;;5040920;28;20241;-76
2021/11/08 14:05:13;;;;;;;8.70;3.90;;;10.20;58.90;;;;;;5039010;28;20387;-76
2021/11/08 14:07:43;;;;;;;6.85;3.50;;;10.30;57.40;;;;;;5039446;28;20209;-77
2021/11/08 14:10:13;;;;;;;10.38;4.95;;;10.40;56.30;;;;;;5038224;28;20222;-77
2021/11/08 14:12:41;;;;;;;8.63;3.40;;;10.50;55.60;;;;;;5037046;28;20222;-78